sensor_id;sensor_type;location;lat;lon;timestamp;pressure;altitude;pressure_sealevel;temperature
64960;BMP180;51487;52.266;10.542;2024-01-25T00:01:29;101189.00;;;7.80
64960;BMP180;51487;52.266;10.542;2024-01-25T00:03:54;101190.00;;;7.80
64960;BMP180;51487;52.266;10.542;2024-01-25T00:06:20;101181.00;;;7.80
64960;BMP180;51487;52.266;10.542;2024-01-25T00:08:46;101182.00;;;7.80
64960;BMP180;51487;52.266;10.542;2024-01-25T00:11:12;101201.00;;;7.70
64960;BMP180;51487;52.266;10.542;2024-01-25T00:13:37;101212.00;;;7.80
64960;BMP180;51487;52.266;10.542;2024-01-25T00:16:04;101212.00;;;7.80
64960;BMP180;51487;52.266;10.542;2024-01-25T00:18:30;101206.00;;;7.80
64960;BMP180;51487;52.266;10.542;2024-01-25T00:20:56;101214.00;;;7.80
64960;BMP180;51487;52.266;10.542;2024-01-25T00:23:21;101208.00;;;7.80
64960;BMP180;51487;52.266;10.542;2024-01-25T00:25:47;101212.00;;;7.90
64960;BMP180;51487;52.266;10.542;2024-01-25T00:28:13;101202.00;;;7.90
64960;BMP180;51487;52.266;10.542;2024-01-25T00:30:39;101212.00;;;7.80
64960;BMP180;51487;52.266;10.542;2024-01-25T00:33:05;101203.00;;;7.80
64960;BMP180;51487;52.266;10.542;2024-01-25T00:35:31;101204.00;;;7.80
64960;BMP180;51487;52.266;10.542;2024-01-25T00:37:57;101204.00;;;7.80
64960;BMP180;51487;52.266;10.542;2024-01-25T00:40:23;101205.00;;;7.80
64960;BMP180;51487;52.266;10.542;2024-01-25T00:42:49;101209.00;;;7.80
64960;BMP180;51487;52.266;10.542;2024-01-25T00:45:22;101212.00;;;7.80
64960;BMP180;51487;52.266;10.542;2024-01-25T00:47:50;101208.00;;;7.80
64960;BMP180;51487;52.266;10.542;2024-01-25T00:50:19;101205.00;;;7.80
64960;BMP180;51487;52.266;10.542;2024-01-25T00:52:47;101217.00;;;7.80
64960;BMP180;51487;52.266;10.542;2024-01-25T00:55:14;101214.00;;;7.80
64960;BMP180;51487;52.266;10.542;2024-01-25T00:57:41;101221.00;;;7.80
64960;BMP180;51487;52.266;10.542;2024-01-25T01:00:07;101217.00;;;7.80
64960;BMP180;51487;52.266;10.542;2024-01-25T01:02:36;101215.00;;;7.80
64960;BMP180;51487;52.266;10.542;2024-01-25T01:05:06;101208.00;;;7.80
64960;BMP180;51487;52.266;10.542;2024-01-25T01:07:32;101222.00;;;7.80
64960;BMP180;51487;52.266;10.542;2024-01-25T01:09:58;101218.00;;;7.80
64960;BMP180;51487;52.266;10.542;2024-01-25T01:12:24;101219.00;;;7.70
64960;BMP180;51487;52.266;10.542;2024-01-25T01:14:49;101228.00;;;7.80
64960;BMP180;51487;52.266;10.542;2024-01-25T01:17:15;101222.00;;;7.80
64960;BMP180;51487;52.266;10.542;2024-01-25T01:19:41;101228.00;;;7.70
64960;BMP180;51487;52.266;10.542;2024-01-25T01:22:07;101238.00;;;7.70
64960;BMP180;51487;52.266;10.542;2024-01-25T01:24:33;101222.00;;;7.70
64960;BMP180;51487;52.266;10.542;2024-01-25T01:26:59;101215.00;;;7.80
64960;BMP180;51487;52.266;10.542;2024-01-25T01:29:24;101219.00;;;7.70
64960;BMP180;51487;52.266;10.542;2024-01-25T01:31:50;101211.00;;;7.70
64960;BMP180;51487;52.266;10.542;2024-01-25T01:34:16;101217.00;;;7.70
64960;BMP180;51487;52.266;10.542;2024-01-25T01:36:43;101211.00;;;7.70
64960;BMP180;51487;52.266;10.542;2024-01-25T01:39:09;101190.00;;;7.60
64960;BMP180;51487;52.266;10.542;2024-01-25T01:41:35;101198.00;;;7.60
64960;BMP180;51487;52.266;10.542;2024-01-25T01:44:01;101195.00;;;7.60
64960;BMP180;51487;52.266;10.542;2024-01-25T01:46:33;101189.00;;;7.60
64960;BMP180;51487;52.266;10.542;2024-01-25T01:49:11;101187.00;;;7.50
64960;BMP180;51487;52.266;10.542;2024-01-25T01:51:38;101183.00;;;7.60
64960;BMP180;51487;52.266;10.542;2024-01-25T01:54:07;101188.00;;;7.50
64960;BMP180;51487;52.266;10.542;2024-01-25T01:56:33;101196.00;;;7.50
64960;BMP180;51487;52.266;10.542;2024-01-25T01:59:02;101187.00;;;7.50
64960;BMP180;51487;52.266;10.542;2024-01-25T02:01:31;101184.00;;;7.50
64960;BMP180;51487;52.266;10.542;2024-01-25T02:03:58;101169.00;;;7.50
64960;BMP180;51487;52.266;10.542;2024-01-25T02:06:24;101194.00;;;7.40
64960;BMP180;51487;52.266;10.542;2024-01-25T02:08:50;101182.00;;;7.40
64960;BMP180;51487;52.266;10.542;2024-01-25T02:11:18;101193.00;;;7.40
64960;BMP180;51487;52.266;10.542;2024-01-25T02:13:45;101198.00;;;7.40
64960;BMP180;51487;52.266;10.542;2024-01-25T02:16:12;101205.00;;;7.30
64960;BMP180;51487;52.266;10.542;2024-01-25T02:18:43;101214.00;;;7.30
64960;BMP180;51487;52.266;10.542;2024-01-25T02:21:08;101221.00;;;7.40
64960;BMP180;51487;52.266;10.542;2024-01-25T02:23:34;101230.00;;;7.30
64960;BMP180;51487;52.266;10.542;2024-01-25T02:26:00;101210.00;;;7.30
64960;BMP180;51487;52.266;10.542;2024-01-25T02:28:25;101214.00;;;7.30
64960;BMP180;51487;52.266;10.542;2024-01-25T02:30:52;101217.00;;;7.30
64960;BMP180;51487;52.266;10.542;2024-01-25T02:33:18;101218.00;;;7.30
64960;BMP180;51487;52.266;10.542;2024-01-25T02:35:44;101210.00;;;7.20
64960;BMP180;51487;52.266;10.542;2024-01-25T02:38:09;101229.00;;;7.20
64960;BMP180;51487;52.266;10.542;2024-01-25T02:40:35;101223.00;;;7.20
64960;BMP180;51487;52.266;10.542;2024-01-25T02:43:01;101228.00;;;7.30
64960;BMP180;51487;52.266;10.542;2024-01-25T02:45:26;101233.00;;;7.20
64960;BMP180;51487;52.266;10.542;2024-01-25T02:47:52;101233.00;;;7.10
64960;BMP180;51487;52.266;10.542;2024-01-25T02:50:18;101237.00;;;7.00
64960;BMP180;51487;52.266;10.542;2024-01-25T02:52:43;101250.00;;;7.00
64960;BMP180;51487;52.266;10.542;2024-01-25T02:55:09;101240.00;;;7.00
64960;BMP180;51487;52.266;10.542;2024-01-25T02:57:35;101251.00;;;6.90
64960;BMP180;51487;52.266;10.542;2024-01-25T03:00:00;101247.00;;;7.00
64960;BMP180;51487;52.266;10.542;2024-01-25T03:02:26;101234.00;;;7.00
64960;BMP180;51487;52.266;10.542;2024-01-25T03:04:52;101238.00;;;7.00
64960;BMP180;51487;52.266;10.542;2024-01-25T03:07:18;101235.00;;;7.00
64960;BMP180;51487;52.266;10.542;2024-01-25T03:09:43;101235.00;;;6.90
64960;BMP180;51487;52.266;10.542;2024-01-25T03:12:10;101253.00;;;6.90
64960;BMP180;51487;52.266;10.542;2024-01-25T03:14:36;101241.00;;;7.00
64960;BMP180;51487;52.266;10.542;2024-01-25T03:17:01;101239.00;;;6.90
64960;BMP180;51487;52.266;10.542;2024-01-25T03:19:28;101246.00;;;6.90
64960;BMP180;51487;52.266;10.542;2024-01-25T03:21:53;101262.00;;;6.80
64960;BMP180;51487;52.266;10.542;2024-01-25T03:24:22;101228.00;;;7.00
64960;BMP180;51487;52.266;10.542;2024-01-25T03:26:47;101239.00;;;6.90
64960;BMP180;51487;52.266;10.542;2024-01-25T03:29:14;101247.00;;;6.90
64960;BMP180;51487;52.266;10.542;2024-01-25T03:31:39;101243.00;;;6.90
64960;BMP180;51487;52.266;10.542;2024-01-25T03:34:05;101250.00;;;6.90
64960;BMP180;51487;52.266;10.542;2024-01-25T03:36:31;101241.00;;;6.90
64960;BMP180;51487;52.266;10.542;2024-01-25T03:38:57;101245.00;;;6.90
64960;BMP180;51487;52.266;10.542;2024-01-25T03:41:23;101254.00;;;6.80
64960;BMP180;51487;52.266;10.542;2024-01-25T03:43:49;101251.00;;;6.90
64960;BMP180;51487;52.266;10.542;2024-01-25T03:46:15;101250.00;;;6.90
64960;BMP180;51487;52.266;10.542;2024-01-25T03:48:41;101277.00;;;6.90
64960;BMP180;51487;52.266;10.542;2024-01-25T03:51:07;101276.00;;;6.90
64960;BMP180;51487;52.266;10.542;2024-01-25T03:53:34;101280.00;;;6.80
64960;BMP180;51487;52.266;10.542;2024-01-25T03:55:59;101290.00;;;6.90
64960;BMP180;51487;52.266;10.542;2024-01-25T03:58:25;101291.00;;;6.90
64960;BMP180;51487;52.266;10.542;2024-01-25T04:00:51;101291.00;;;6.90
64960;BMP180;51487;52.266;10.542;2024-01-25T04:03:16;101293.00;;;6.90
64960;BMP180;51487;52.266;10.542;2024-01-25T04:05:45;101300.00;;;6.90
64960;BMP180;51487;52.266;10.542;2024-01-25T04:08:11;101304.00;;;6.90
64960;BMP180;51487;52.266;10.542;2024-01-25T04:10:36;101307.00;;;6.90
64960;BMP180;51487;52.266;10.542;2024-01-25T04:13:02;101320.00;;;6.90
64960;BMP180;51487;52.266;10.542;2024-01-25T04:15:32;101306.00;;;6.90
64960;BMP180;51487;52.266;10.542;2024-01-25T04:17:58;101311.00;;;7.00
64960;BMP180;51487;52.266;10.542;2024-01-25T04:20:24;101317.00;;;6.90
64960;BMP180;51487;52.266;10.542;2024-01-25T04:22:52;101316.00;;;6.90
64960;BMP180;51487;52.266;10.542;2024-01-25T04:25:18;101312.00;;;7.00
64960;BMP180;51487;52.266;10.542;2024-01-25T04:27:43;101323.00;;;6.90
64960;BMP180;51487;52.266;10.542;2024-01-25T04:30:09;101328.00;;;6.90
64960;BMP180;51487;52.266;10.542;2024-01-25T04:32:35;101329.00;;;6.90
64960;BMP180;51487;52.266;10.542;2024-01-25T04:35:01;101333.00;;;7.00
64960;BMP180;51487;52.266;10.542;2024-01-25T04:37:27;101345.00;;;6.90
64960;BMP180;51487;52.266;10.542;2024-01-25T04:39:52;101355.00;;;6.80
64960;BMP180;51487;52.266;10.542;2024-01-25T04:42:18;101358.00;;;6.90
64960;BMP180;51487;52.266;10.542;2024-01-25T04:44:44;101376.00;;;6.80
64960;BMP180;51487;52.266;10.542;2024-01-25T04:47:10;101374.00;;;6.80
64960;BMP180;51487;52.266;10.542;2024-01-25T04:49:36;101383.00;;;6.90
64960;BMP180;51487;52.266;10.542;2024-01-25T04:52:02;101371.00;;;7.00
64960;BMP180;51487;52.266;10.542;2024-01-25T04:54:28;101372.00;;;7.00
64960;BMP180;51487;52.266;10.542;2024-01-25T04:56:53;101370.00;;;6.90
64960;BMP180;51487;52.266;10.542;2024-01-25T04:59:20;101387.00;;;6.80
64960;BMP180;51487;52.266;10.542;2024-01-25T05:01:45;101395.00;;;6.90
64960;BMP180;51487;52.266;10.542;2024-01-25T05:04:11;101403.00;;;6.80
64960;BMP180;51487;52.266;10.542;2024-01-25T05:06:37;101390.00;;;6.80
64960;BMP180;51487;52.266;10.542;2024-01-25T05:09:02;101391.00;;;6.70
64960;BMP180;51487;52.266;10.542;2024-01-25T05:11:28;101386.00;;;6.70
64960;BMP180;51487;52.266;10.542;2024-01-25T05:13:54;101402.00;;;6.80
64960;BMP180;51487;52.266;10.542;2024-01-25T05:16:20;101401.00;;;6.80
64960;BMP180;51487;52.266;10.542;2024-01-25T05:18:45;101401.00;;;6.80
64960;BMP180;51487;52.266;10.542;2024-01-25T05:21:11;101419.00;;;6.80
64960;BMP180;51487;52.266;10.542;2024-01-25T05:23:36;101424.00;;;6.70
64960;BMP180;51487;52.266;10.542;2024-01-25T05:26:02;101411.00;;;6.80
64960;BMP180;51487;52.266;10.542;2024-01-25T05:28:28;101421.00;;;6.80
64960;BMP180;51487;52.266;10.542;2024-01-25T05:30:53;101416.00;;;6.70
64960;BMP180;51487;52.266;10.542;2024-01-25T05:33:19;101407.00;;;6.70
64960;BMP180;51487;52.266;10.542;2024-01-25T05:35:45;101404.00;;;6.70
64960;BMP180;51487;52.266;10.542;2024-01-25T05:38:10;101416.00;;;6.70
64960;BMP180;51487;52.266;10.542;2024-01-25T05:40:36;101411.00;;;6.80
64960;BMP180;51487;52.266;10.542;2024-01-25T05:43:01;101411.00;;;6.70
64960;BMP180;51487;52.266;10.542;2024-01-25T05:45:28;101413.00;;;6.70
64960;BMP180;51487;52.266;10.542;2024-01-25T05:47:54;101425.00;;;6.70
64960;BMP180;51487;52.266;10.542;2024-01-25T05:50:19;101421.00;;;6.80
64960;BMP180;51487;52.266;10.542;2024-01-25T05:52:45;101426.00;;;6.80
64960;BMP180;51487;52.266;10.542;2024-01-25T05:55:13;101421.00;;;6.70
64960;BMP180;51487;52.266;10.542;2024-01-25T05:57:42;101414.00;;;6.70
64960;BMP180;51487;52.266;10.542;2024-01-25T06:00:11;101419.00;;;6.60
64960;BMP180;51487;52.266;10.542;2024-01-25T06:02:38;101415.00;;;6.60
64960;BMP180;51487;52.266;10.542;2024-01-25T06:05:04;101412.00;;;6.50
64960;BMP180;51487;52.266;10.542;2024-01-25T06:07:31;101424.00;;;6.60
64960;BMP180;51487;52.266;10.542;2024-01-25T06:09:57;101428.00;;;6.50
64960;BMP180;51487;52.266;10.542;2024-01-25T06:12:22;101429.00;;;6.40
64960;BMP180;51487;52.266;10.542;2024-01-25T06:14:48;101439.00;;;6.50
64960;BMP180;51487;52.266;10.542;2024-01-25T06:17:14;101450.00;;;6.50
64960;BMP180;51487;52.266;10.542;2024-01-25T06:19:39;101445.00;;;6.60
64960;BMP180;51487;52.266;10.542;2024-01-25T06:22:05;101446.00;;;6.50
64960;BMP180;51487;52.266;10.542;2024-01-25T06:24:31;101443.00;;;6.50
64960;BMP180;51487;52.266;10.542;2024-01-25T06:26:56;101444.00;;;6.60
64960;BMP180;51487;52.266;10.542;2024-01-25T06:29:22;101447.00;;;6.50
64960;BMP180;51487;52.266;10.542;2024-01-25T06:31:47;101449.00;;;6.60
64960;BMP180;51487;52.266;10.542;2024-01-25T06:34:13;101446.00;;;6.60
64960;BMP180;51487;52.266;10.542;2024-01-25T06:36:39;101461.00;;;6.60
64960;BMP180;51487;52.266;10.542;2024-01-25T06:39:05;101452.00;;;6.60
64960;BMP180;51487;52.266;10.542;2024-01-25T06:41:31;101455.00;;;6.70
64960;BMP180;51487;52.266;10.542;2024-01-25T06:43:57;101455.00;;;6.60
64960;BMP180;51487;52.266;10.542;2024-01-25T06:46:24;101471.00;;;6.60
64960;BMP180;51487;52.266;10.542;2024-01-25T06:48:50;101472.00;;;6.50
64960;BMP180;51487;52.266;10.542;2024-01-25T06:51:16;101473.00;;;6.50
64960;BMP180;51487;52.266;10.542;2024-01-25T06:53:42;101474.00;;;6.40
64960;BMP180;51487;52.266;10.542;2024-01-25T06:56:08;101483.00;;;6.50
64960;BMP180;51487;52.266;10.542;2024-01-25T06:58:33;101478.00;;;6.50
64960;BMP180;51487;52.266;10.542;2024-01-25T07:00:59;101475.00;;;6.60
64960;BMP180;51487;52.266;10.542;2024-01-25T07:03:25;101477.00;;;6.60
64960;BMP180;51487;52.266;10.542;2024-01-25T07:05:51;101478.00;;;6.40
64960;BMP180;51487;52.266;10.542;2024-01-25T07:08:16;101479.00;;;6.40
64960;BMP180;51487;52.266;10.542;2024-01-25T07:10:44;101479.00;;;6.40
64960;BMP180;51487;52.266;10.542;2024-01-25T07:13:10;101486.00;;;6.30
64960;BMP180;51487;52.266;10.542;2024-01-25T07:15:36;101487.00;;;6.40
64960;BMP180;51487;52.266;10.542;2024-01-25T07:18:02;101485.00;;;6.30
64960;BMP180;51487;52.266;10.542;2024-01-25T07:20:28;101498.00;;;6.50
64960;BMP180;51487;52.266;10.542;2024-01-25T07:22:54;101498.00;;;6.50
64960;BMP180;51487;52.266;10.542;2024-01-25T07:25:20;101505.00;;;6.30
64960;BMP180;51487;52.266;10.542;2024-01-25T07:27:46;101511.00;;;6.40
64960;BMP180;51487;52.266;10.542;2024-01-25T07:30:13;101525.00;;;6.40
64960;BMP180;51487;52.266;10.542;2024-01-25T07:32:39;101541.00;;;6.40
64960;BMP180;51487;52.266;10.542;2024-01-25T07:35:08;101525.00;;;6.30
64960;BMP180;51487;52.266;10.542;2024-01-25T07:37:38;101534.00;;;6.30
64960;BMP180;51487;52.266;10.542;2024-01-25T07:40:04;101531.00;;;6.30
64960;BMP180;51487;52.266;10.542;2024-01-25T07:42:32;101546.00;;;6.30
64960;BMP180;51487;52.266;10.542;2024-01-25T07:44:58;101534.00;;;6.30
64960;BMP180;51487;52.266;10.542;2024-01-25T07:47:26;101546.00;;;6.40
64960;BMP180;51487;52.266;10.542;2024-01-25T07:49:51;101549.00;;;6.30
64960;BMP180;51487;52.266;10.542;2024-01-25T07:52:17;101551.00;;;6.30
64960;BMP180;51487;52.266;10.542;2024-01-25T07:54:43;101554.00;;;6.30
64960;BMP180;51487;52.266;10.542;2024-01-25T07:57:09;101551.00;;;6.30
64960;BMP180;51487;52.266;10.542;2024-01-25T07:59:35;101556.00;;;6.40
64960;BMP180;51487;52.266;10.542;2024-01-25T08:02:01;101553.00;;;6.40
64960;BMP180;51487;52.266;10.542;2024-01-25T08:04:27;101552.00;;;6.40
64960;BMP180;51487;52.266;10.542;2024-01-25T08:06:52;101556.00;;;6.30
64960;BMP180;51487;52.266;10.542;2024-01-25T08:09:18;101572.00;;;6.30
64960;BMP180;51487;52.266;10.542;2024-01-25T08:11:44;101577.00;;;6.40
64960;BMP180;51487;52.266;10.542;2024-01-25T08:14:10;101565.00;;;6.30
64960;BMP180;51487;52.266;10.542;2024-01-25T08:16:37;101570.00;;;6.40
64960;BMP180;51487;52.266;10.542;2024-01-25T08:19:03;101569.00;;;6.50
64960;BMP180;51487;52.266;10.542;2024-01-25T08:21:29;101567.00;;;6.50
64960;BMP180;51487;52.266;10.542;2024-01-25T08:23:58;101581.00;;;6.40
64960;BMP180;51487;52.266;10.542;2024-01-25T08:26:24;101578.00;;;6.30
64960;BMP180;51487;52.266;10.542;2024-01-25T08:28:50;101578.00;;;6.40
64960;BMP180;51487;52.266;10.542;2024-01-25T08:31:16;101587.00;;;6.40
64960;BMP180;51487;52.266;10.542;2024-01-25T08:33:42;101577.00;;;6.40
64960;BMP180;51487;52.266;10.542;2024-01-25T08:36:09;101585.00;;;6.30
64960;BMP180;51487;52.266;10.542;2024-01-25T08:38:36;101582.00;;;6.30
64960;BMP180;51487;52.266;10.542;2024-01-25T08:41:02;101579.00;;;6.30
64960;BMP180;51487;52.266;10.542;2024-01-25T08:43:27;101585.00;;;6.40
64960;BMP180;51487;52.266;10.542;2024-01-25T08:45:54;101592.00;;;6.30
64960;BMP180;51487;52.266;10.542;2024-01-25T08:48:19;101591.00;;;6.30
64960;BMP180;51487;52.266;10.542;2024-01-25T08:50:46;101594.00;;;6.40
64960;BMP180;51487;52.266;10.542;2024-01-25T08:53:11;101593.00;;;6.40
64960;BMP180;51487;52.266;10.542;2024-01-25T08:55:37;101608.00;;;6.40
64960;BMP180;51487;52.266;10.542;2024-01-25T08:58:03;101615.00;;;6.40
64960;BMP180;51487;52.266;10.542;2024-01-25T09:00:29;101614.00;;;6.40
64960;BMP180;51487;52.266;10.542;2024-01-25T09:02:55;101616.00;;;6.50
64960;BMP180;51487;52.266;10.542;2024-01-25T09:05:20;101606.00;;;6.40
64960;BMP180;51487;52.266;10.542;2024-01-25T09:07:47;101624.00;;;6.50
64960;BMP180;51487;52.266;10.542;2024-01-25T09:10:13;101620.00;;;6.50
64960;BMP180;51487;52.266;10.542;2024-01-25T09:12:38;101638.00;;;6.50
64960;BMP180;51487;52.266;10.542;2024-01-25T09:15:05;101632.00;;;6.50
64960;BMP180;51487;52.266;10.542;2024-01-25T09:17:31;101631.00;;;6.60
64960;BMP180;51487;52.266;10.542;2024-01-25T09:19:56;101631.00;;;6.60
64960;BMP180;51487;52.266;10.542;2024-01-25T09:22:25;101624.00;;;6.50
64960;BMP180;51487;52.266;10.542;2024-01-25T09:24:50;101638.00;;;6.40
64960;BMP180;51487;52.266;10.542;2024-01-25T09:27:16;101644.00;;;6.60
64960;BMP180;51487;52.266;10.542;2024-01-25T09:29:42;101635.00;;;6.70
64960;BMP180;51487;52.266;10.542;2024-01-25T09:32:08;101645.00;;;6.50
64960;BMP180;51487;52.266;10.542;2024-01-25T09:34:38;101645.00;;;6.50
64960;BMP180;51487;52.266;10.542;2024-01-25T09:37:04;101661.00;;;6.50
64960;BMP180;51487;52.266;10.542;2024-01-25T09:39:33;101642.00;;;6.60
64960;BMP180;51487;52.266;10.542;2024-01-25T09:42:01;101652.00;;;6.60
64960;BMP180;51487;52.266;10.542;2024-01-25T09:44:31;101654.00;;;6.70
64960;BMP180;51487;52.266;10.542;2024-01-25T09:47:03;101661.00;;;6.80
64960;BMP180;51487;52.266;10.542;2024-01-25T09:49:32;101659.00;;;7.00
64960;BMP180;51487;52.266;10.542;2024-01-25T09:52:04;101658.00;;;6.90
64960;BMP180;51487;52.266;10.542;2024-01-25T09:54:36;101673.00;;;6.90
64960;BMP180;51487;52.266;10.542;2024-01-25T09:57:06;101678.00;;;6.70
64960;BMP180;51487;52.266;10.542;2024-01-25T09:59:39;101670.00;;;6.70
64960;BMP180;51487;52.266;10.542;2024-01-25T10:02:07;101671.00;;;6.70
64960;BMP180;51487;52.266;10.542;2024-01-25T10:04:34;101672.00;;;6.50
64960;BMP180;51487;52.266;10.542;2024-01-25T10:07:00;101680.00;;;6.70
64960;BMP180;51487;52.266;10.542;2024-01-25T10:09:26;101666.00;;;6.80
64960;BMP180;51487;52.266;10.542;2024-01-25T10:11:52;101666.00;;;6.70
64960;BMP180;51487;52.266;10.542;2024-01-25T10:14:18;101657.00;;;6.70
64960;BMP180;51487;52.266;10.542;2024-01-25T10:16:47;101659.00;;;6.60
64960;BMP180;51487;52.266;10.542;2024-01-25T10:19:13;101653.00;;;6.70
64960;BMP180;51487;52.266;10.542;2024-01-25T10:21:41;101669.00;;;6.70
64960;BMP180;51487;52.266;10.542;2024-01-25T10:24:07;101671.00;;;6.70
64960;BMP180;51487;52.266;10.542;2024-01-25T10:26:34;101659.00;;;6.80
64960;BMP180;51487;52.266;10.542;2024-01-25T10:29:00;101670.00;;;7.00
64960;BMP180;51487;52.266;10.542;2024-01-25T10:31:27;101668.00;;;6.90
64960;BMP180;51487;52.266;10.542;2024-01-25T10:33:54;101661.00;;;7.00
64960;BMP180;51487;52.266;10.542;2024-01-25T10:36:23;101669.00;;;6.90
64960;BMP180;51487;52.266;10.542;2024-01-25T10:38:53;101684.00;;;6.90
64960;BMP180;51487;52.266;10.542;2024-01-25T10:41:20;101686.00;;;6.80
64960;BMP180;51487;52.266;10.542;2024-01-25T10:43:49;101689.00;;;6.90
64960;BMP180;51487;52.266;10.542;2024-01-25T10:46:14;101677.00;;;7.10
64960;BMP180;51487;52.266;10.542;2024-01-25T10:48:41;101686.00;;;7.00
64960;BMP180;51487;52.266;10.542;2024-01-25T10:51:10;101680.00;;;7.10
64960;BMP180;51487;52.266;10.542;2024-01-25T10:53:37;101687.00;;;7.10
64960;BMP180;51487;52.266;10.542;2024-01-25T10:56:06;101685.00;;;7.20
64960;BMP180;51487;52.266;10.542;2024-01-25T10:58:32;101690.00;;;7.20
64960;BMP180;51487;52.266;10.542;2024-01-25T11:01:01;101687.00;;;7.20
64960;BMP180;51487;52.266;10.542;2024-01-25T11:03:34;101691.00;;;7.30
64960;BMP180;51487;52.266;10.542;2024-01-25T11:06:11;101694.00;;;7.20
64960;BMP180;51487;52.266;10.542;2024-01-25T11:08:38;101698.00;;;7.20
64960;BMP180;51487;52.266;10.542;2024-01-25T11:11:09;101703.00;;;7.20
64960;BMP180;51487;52.266;10.542;2024-01-25T11:13:43;101706.00;;;7.00
64960;BMP180;51487;52.266;10.542;2024-01-25T11:16:14;101710.00;;;7.20
64960;BMP180;51487;52.266;10.542;2024-01-25T11:18:57;101706.00;;;7.30
64960;BMP180;51487;52.266;10.542;2024-01-25T11:21:44;101706.00;;;7.20
64960;BMP180;51487;52.266;10.542;2024-01-25T11:24:20;101693.00;;;7.10
64960;BMP180;51487;52.266;10.542;2024-01-25T11:26:47;101702.00;;;7.20
64960;BMP180;51487;52.266;10.542;2024-01-25T11:29:18;101695.00;;;7.00
64960;BMP180;51487;52.266;10.542;2024-01-25T11:31:46;101697.00;;;7.10
64960;BMP180;51487;52.266;10.542;2024-01-25T11:34:15;101687.00;;;7.10
64960;BMP180;51487;52.266;10.542;2024-01-25T11:36:42;101690.00;;;7.20
64960;BMP180;51487;52.266;10.542;2024-01-25T11:39:12;101689.00;;;7.10
64960;BMP180;51487;52.266;10.542;2024-01-25T11:41:39;101699.00;;;7.10
64960;BMP180;51487;52.266;10.542;2024-01-25T11:44:05;101689.00;;;7.30
64960;BMP180;51487;52.266;10.542;2024-01-25T11:46:31;101696.00;;;7.20
64960;BMP180;51487;52.266;10.542;2024-01-25T11:49:00;101689.00;;;7.10
64960;BMP180;51487;52.266;10.542;2024-01-25T11:51:26;101691.00;;;7.20
64960;BMP180;51487;52.266;10.542;2024-01-25T11:53:51;101686.00;;;7.00
64960;BMP180;51487;52.266;10.542;2024-01-25T11:56:21;101673.00;;;7.10
64960;BMP180;51487;52.266;10.542;2024-01-25T11:58:52;101673.00;;;7.20
64960;BMP180;51487;52.266;10.542;2024-01-25T12:01:19;101676.00;;;7.40
64960;BMP180;51487;52.266;10.542;2024-01-25T12:03:46;101689.00;;;7.40
64960;BMP180;51487;52.266;10.542;2024-01-25T12:06:12;101677.00;;;7.70
64960;BMP180;51487;52.266;10.542;2024-01-25T12:08:37;101690.00;;;7.70
64960;BMP180;51487;52.266;10.542;2024-01-25T12:11:10;101673.00;;;7.60
64960;BMP180;51487;52.266;10.542;2024-01-25T12:13:43;101683.00;;;7.40
64960;BMP180;51487;52.266;10.542;2024-01-25T12:16:10;101685.00;;;7.70
64960;BMP180;51487;52.266;10.542;2024-01-25T12:18:37;101689.00;;;7.90
64960;BMP180;51487;52.266;10.542;2024-01-25T12:21:04;101682.00;;;7.80
64960;BMP180;51487;52.266;10.542;2024-01-25T12:26:04;101696.00;;;7.50
64960;BMP180;51487;52.266;10.542;2024-01-25T12:28:31;101699.00;;;7.50
64960;BMP180;51487;52.266;10.542;2024-01-25T12:30:59;101689.00;;;7.30
64960;BMP180;51487;52.266;10.542;2024-01-25T12:33:26;101704.00;;;7.40
64960;BMP180;51487;52.266;10.542;2024-01-25T12:35:52;101681.00;;;7.50
64960;BMP180;51487;52.266;10.542;2024-01-25T12:38:21;101697.00;;;7.50
64960;BMP180;51487;52.266;10.542;2024-01-25T12:40:51;101687.00;;;7.50
64960;BMP180;51487;52.266;10.542;2024-01-25T12:43:20;101681.00;;;7.60
64960;BMP180;51487;52.266;10.542;2024-01-25T12:45:49;101695.00;;;7.80
64960;BMP180;51487;52.266;10.542;2024-01-25T12:48:15;101693.00;;;7.70
64960;BMP180;51487;52.266;10.542;2024-01-25T12:50:42;101690.00;;;7.70
64960;BMP180;51487;52.266;10.542;2024-01-25T12:53:10;101681.00;;;7.80
64960;BMP180;51487;52.266;10.542;2024-01-25T12:55:37;101682.00;;;7.70
64960;BMP180;51487;52.266;10.542;2024-01-25T12:58:06;101688.00;;;7.70
64960;BMP180;51487;52.266;10.542;2024-01-25T13:00:34;101682.00;;;7.80
64960;BMP180;51487;52.266;10.542;2024-01-25T13:03:00;101679.00;;;8.20
64960;BMP180;51487;52.266;10.542;2024-01-25T13:05:29;101664.00;;;8.40
64960;BMP180;51487;52.266;10.542;2024-01-25T13:08:01;101677.00;;;8.10
64960;BMP180;51487;52.266;10.542;2024-01-25T13:10:30;101683.00;;;8.00
64960;BMP180;51487;52.266;10.542;2024-01-25T13:12:57;101689.00;;;7.70
64960;BMP180;51487;52.266;10.542;2024-01-25T13:15:23;101685.00;;;7.60
64960;BMP180;51487;52.266;10.542;2024-01-25T13:17:49;101675.00;;;7.40
64960;BMP180;51487;52.266;10.542;2024-01-25T13:20:15;101683.00;;;7.50
64960;BMP180;51487;52.266;10.542;2024-01-25T13:22:40;101682.00;;;7.50
64960;BMP180;51487;52.266;10.542;2024-01-25T13:25:07;101683.00;;;7.50
64960;BMP180;51487;52.266;10.542;2024-01-25T13:27:35;101678.00;;;7.60
64960;BMP180;51487;52.266;10.542;2024-01-25T13:30:04;101680.00;;;7.60
64960;BMP180;51487;52.266;10.542;2024-01-25T13:32:30;101676.00;;;7.80
64960;BMP180;51487;52.266;10.542;2024-01-25T13:34:56;101679.00;;;7.90
64960;BMP180;51487;52.266;10.542;2024-01-25T13:37:22;101679.00;;;7.80
64960;BMP180;51487;52.266;10.542;2024-01-25T13:39:47;101672.00;;;8.00
64960;BMP180;51487;52.266;10.542;2024-01-25T13:42:13;101671.00;;;8.10
64960;BMP180;51487;52.266;10.542;2024-01-25T13:44:39;101684.00;;;7.90
64960;BMP180;51487;52.266;10.542;2024-01-25T13:47:07;101667.00;;;7.70
64960;BMP180;51487;52.266;10.542;2024-01-25T13:49:33;101672.00;;;7.80
64960;BMP180;51487;52.266;10.542;2024-01-25T13:52:02;101681.00;;;7.70
64960;BMP180;51487;52.266;10.542;2024-01-25T13:54:29;101667.00;;;7.50
64960;BMP180;51487;52.266;10.542;2024-01-25T13:56:55;101675.00;;;7.30